Time;durP1;ratioP1;P1;durP2;ratioP2;P2;SDS_P1;SDS_P2;PMS_P1;PMS_P2;Temp;Humidity;BMP_temperature;BMP_pressure;BME280_temperature;BME280_humidity;BME280_pressure;Samples;Min_cycle;Max_cycle;Signal;HPM_P1;HPM_P2
2022/10/28 00:01:22;;;;;;;1.70;0.50;;;;;;;23.37;47.62;102427.00;4199058;28;20048;-69
2022/10/28 00:03:23;;;;;;;2.38;0.63;;;;;;;23.39;47.47;102424.81;4193477;28;20541;-69
2022/10/28 00:05:24;;;;;;;1.23;0.70;;;;;;;23.39;47.42;102419.22;4198652;28;20036;-69
2022/10/28 00:07:27;;;;;;;1.85;0.70;;;;;;;23.39;47.17;102419.22;4198481;28;20044;-69
2022/10/28 00:09:29;;;;;;;1.85;0.60;;;;;;;23.39;47.30;102427.59;4198845;28;20044;-68
2022/10/28 00:11:32;;;;;;;2.65;0.80;;;;;;;23.20;47.24;102402.81;4198961;28;20040;-69
2022/10/28 00:13:37;;;;;;;1.02;0.52;;;;;;;23.38;47.40;102442.69;4199052;28;20049;-69
2022/10/28 00:15:38;;;;;;;1.17;0.63;;;;;;;23.38;47.24;102434.28;4198732;28;20036;-69
2022/10/28 00:17:40;;;;;;;1.98;0.63;;;;;;;23.38;47.25;102439.88;4198727;28;20036;-69
2022/10/28 00:19:44;;;;;;;3.75;0.70;;;;;;;23.33;47.29;102433.13;4198205;28;20041;-68
2022/10/28 00:21:45;;;;;;;1.67;0.52;;;;;;;23.35;47.34;102441.22;4198620;28;20037;-69
2022/10/28 00:23:46;;;;;;;3.25;0.70;;;;;;;23.25;47.30;102433.59;4198625;28;20040;-69
2022/10/28 00:25:48;;;;;;;1.17;0.50;;;;;;;23.36;47.37;102453.25;4198503;28;20062;-69
2022/10/28 00:27:53;;;;;;;1.48;0.60;;;;;;;23.36;47.16;102448.50;4198285;28;20074;-69
2022/10/28 00:29:54;;;;;;;;;;;;;;;23.33;47.51;102449.88;4198657;28;20483;-69
2022/10/28 00:31:55;;;;;;;0.80;0.60;;;;;;;23.41;47.16;102444.94;4198352;28;19912;-69
2022/10/28 00:34:02;;;;;;;2.15;0.43;;;;;;;23.40;47.17;102460.84;4198254;28;20040;-69
2022/10/28 00:36:24;;;;;;;2.15;0.63;;;;;;;23.37;47.38;102463.31;4198113;28;20040;-69
2022/10/28 00:38:25;;;;;;;1.08;0.60;;;;;;;23.39;47.04;102464.75;4197998;28;20102;-69
2022/10/28 00:40:27;;;;;;;4.30;0.70;;;;;;;23.37;47.41;102461.38;4197628;28;20048;-69
2022/10/28 00:42:33;;;;;;;3.70;0.60;;;;;;;23.36;47.44;102462.47;4198297;28;20125;-69
2022/10/28 00:44:54;;;;;;;0.60;0.50;;;;;;;23.33;47.49;102465.81;4198222;28;20553;-69
2022/10/28 00:47:16;;;;;;;2.65;0.57;;;;;;;23.32;47.07;102464.97;4198110;28;20040;-69
2022/10/28 00:49:27;;;;;;;1.70;0.60;;;;;;;23.34;47.04;102467.50;4197050;28;20033;-69
2022/10/28 00:51:33;;;;;;;0.88;0.60;;;;;;;23.30;47.29;102461.56;4198420;28;20044;-69
2022/10/28 00:53:38;;;;;;;0.52;0.50;;;;;;;23.36;47.12;102481.19;4198114;28;20549;-69
2022/10/28 00:55:39;;;;;;;1.90;0.82;;;;;;;23.34;47.04;102473.91;4197922;28;20044;-69
2022/10/28 00:57:41;;;;;;;0.55;0.40;;;;;;;23.16;47.32;102443.53;4197661;28;20480;-69
2022/10/28 00:59:49;;;;;;;0.60;0.40;;;;;;;23.33;47.26;102485.34;4197700;28;20446;-68
2022/10/28 01:01:53;;;;;;;0.90;0.60;;;;;;;23.33;47.12;102489.00;4197752;28;20048;-69
2022/10/28 01:03:56;;;;;;;0.70;0.50;;;;;;;23.33;47.26;102489.00;4198275;28;20040;-69
2022/10/28 01:05:57;;;;;;;1.08;0.60;;;;;;;23.32;47.08;102501.28;4196586;28;20041;-69
2022/10/28 01:08:01;;;;;;;1.67;0.52;;;;;;;23.31;47.06;102490.34;4197977;28;20040;-69
2022/10/28 01:10:03;;;;;;;2.00;0.65;;;;;;;23.32;47.13;102508.78;4197952;28;20040;-69
2022/10/28 01:12:57;;;;;;;2.67;0.70;;;;;;;23.29;47.30;102498.16;4198032;28;20036;-69
2022/10/28 01:15:10;;;;;;;1.30;0.50;;;;;;;23.33;47.16;102505.75;4197336;28;20091;-69
2022/10/28 01:17:43;;;;;;;3.50;0.70;;;;;;;23.31;47.12;102518.28;4197773;28;20037;-68
2022/10/28 01:20:09;;;;;;;2.08;0.70;;;;;;;23.32;47.22;102515.25;4197759;28;20048;-69
2022/10/28 01:22:33;;;;;;;2.28;0.55;;;;;;;23.29;46.99;102512.97;4197253;28;20032;-68
2022/10/28 01:24:53;;;;;;;0.95;0.60;;;;;;;23.29;47.26;102510.16;4197709;28;20041;-68
2022/10/28 01:27:21;;;;;;;1.20;0.60;;;;;;;23.31;47.16;102519.13;4197426;28;20044;-68
2022/10/28 01:29:40;;;;;;;0.70;0.50;;;;;;;23.32;47.06;102526.41;4197406;28;20044;-68
2022/10/28 01:31:56;;;;;;;2.33;0.77;;;;;;;23.31;47.02;102537.81;4197808;28;20036;-68
2022/10/28 01:34:29;;;;;;;0.98;0.60;;;;;;;23.29;47.09;102526.09;4198001;28;20106;-68
2022/10/28 01:36:41;;;;;;;1.42;0.70;;;;;;;23.30;47.00;102527.75;4197482;28;20453;-69
2022/10/28 01:38:57;;;;;;;0.70;0.40;;;;;;;23.29;47.17;102537.25;4197582;28;20086;-68
2022/10/28 01:41:22;;;;;;;;;;;;;;;23.28;46.89;102535.56;4197662;28;20479;-69
2022/10/28 01:43:33;;;;;;;0.85;0.60;;;;;;;23.34;47.02;102532.56;4197668;28;19912;-68
2022/10/28 01:46:00;;;;;;;1.95;0.70;;;;;;;23.32;46.90;102547.88;4197113;28;20101;-69
2022/10/28 01:48:21;;;;;;;2.83;0.70;;;;;;;23.27;46.88;102545.88;4191391;28;20036;-68
2022/10/28 01:50:25;;;;;;;0.63;0.52;;;;;;;23.33;46.94;102544.03;4197199;28;20040;-68
2022/10/28 01:52:30;;;;;;;1.65;0.55;;;;;;;23.19;47.08;102531.53;4197564;28;20044;-69
2022/10/28 01:54:33;;;;;;;0.70;0.65;;;;;;;23.29;47.01;102557.66;4197456;28;20033;-69
2022/10/28 01:56:39;;;;;;;0.80;0.60;;;;;;;23.21;47.05;102548.88;4196648;28;20086;-69
2022/10/28 01:58:41;;;;;;;0.52;0.45;;;;;;;23.28;47.02;102567.13;4199849;28;20532;-69
2022/10/28 02:00:45;;;;;;;0.88;0.40;;;;;;;23.28;46.99;102569.94;4200797;28;20553;-68
2022/10/28 02:02:49;;;;;;;0.70;0.52;;;;;;;23.27;46.95;102571.00;4201066;28;20422;-68
2022/10/28 02:05:00;;;;;;;0.73;0.50;;;;;;;23.27;47.02;102575.75;4200436;28;20048;-69
2022/10/28 02:07:03;;;;;;;0.93;0.47;;;;;;;23.26;47.12;102583.28;4200390;28;20040;-68
2022/10/28 02:09:10;;;;;;;0.40;0.38;;;;;;;23.26;46.86;102580.50;4200371;28;20279;-68
2022/10/28 02:11:31;;;;;;;2.53;0.60;;;;;;;23.26;47.05;102588.88;4200832;28;20045;-69
2022/10/28 02:14:06;;;;;;;0.55;0.40;;;;;;;23.26;46.83;102588.03;4200412;28;20106;-69
2022/10/28 02:16:13;;;;;;;1.05;0.70;;;;;;;23.28;46.92;102592.28;4200405;28;20053;-68
2022/10/28 02:18:42;;;;;;;0.73;0.43;;;;;;;23.24;47.13;102596.69;4200511;28;20422;-69
2022/10/28 02:20:48;;;;;;;1.40;0.40;;;;;;;23.28;47.00;102600.66;4180624;28;20032;-69
2022/10/28 02:23:17;;;;;;;1.23;0.57;;;;;;;23.26;46.97;102599.22;4200694;28;20418;-69
2022/10/28 02:25:24;;;;;;;0.90;0.47;;;;;;;23.15;47.01;102581.47;4200292;28;20037;-69
2022/10/28 02:27:37;;;;;;;0.65;0.38;;;;;;;23.05;47.05;102576.59;4200174;28;20090;-68
2022/10/28 02:30:07;;;;;;;0.30;0.30;;;;;;;23.23;47.07;102617.34;4200479;28;20044;-68
2022/10/28 02:32:18;;;;;;;0.95;0.43;;;;;;;23.19;46.81;102599.41;4200113;28;20044;-69
2022/10/28 02:34:29;;;;;;;0.57;0.50;;;;;;;23.24;46.97;102619.03;4200538;28;20037;-69
2022/10/28 02:36:35;;;;;;;0.80;0.50;;;;;;;23.20;47.09;102606.69;4200056;28;20115;-68
2022/10/28 02:38:42;;;;;;;0.80;0.40;;;;;;;23.24;46.94;102619.03;4199995;28;20106;-68
2022/10/28 02:40:49;;;;;;;1.10;0.47;;;;;;;23.21;47.05;102613.94;4200365;28;20109;-68
2022/10/28 02:42:56;;;;;;;3.40;1.95;;;;;;;23.15;46.87;102602.97;4200282;28;20037;-68
2022/10/28 02:45:03;;;;;;;0.30;0.30;;;;;;;23.23;46.70;102620.13;4199948;28;20032;-69
2022/10/28 02:47:14;;;;;;;0.80;0.40;;;;;;;23.23;46.96;102627.63;4199710;28;20044;-69
2022/10/28 02:49:16;;;;;;;0.77;0.50;;;;;;;23.19;47.00;102618.97;4199716;28;20086;-69
2022/10/28 02:51:39;;;;;;;0.75;0.40;;;;;;;23.20;47.02;102628.19;4200124;28;20090;-69
2022/10/28 02:54:07;;;;;;;0.77;0.50;;;;;;;23.22;46.79;102621.22;4200008;28;20438;-69
2022/10/28 02:56:11;;;;;;;1.92;0.65;;;;;;;23.12;46.84;102609.91;4199661;28;20090;-69
2022/10/28 02:58:13;;;;;;;0.50;0.40;;;;;;;23.22;46.85;102631.53;4198745;28;20109;-69
2022/10/28 03:00:18;;;;;;;0.55;0.50;;;;;;;23.20;47.00;102620.63;4199838;28;20048;-68
2022/10/28 03:02:20;;;;;;;1.40;0.60;;;;;;;23.04;47.04;102599.16;4199616;28;20044;-69
2022/10/28 03:04:22;;;;;;;0.40;0.40;;;;;;;23.20;46.87;102634.59;4198766;28;20036;-68
2022/10/28 03:06:23;;;;;;;0.80;0.60;;;;;;;23.21;47.05;102639.09;4199312;28;20442;-68
2022/10/28 03:08:24;;;;;;;3.65;0.50;;;;;;;23.19;47.07;102644.09;4199731;28;20434;-69
2022/10/28 03:10:25;;;;;;;2.33;0.60;;;;;;;23.19;46.67;102641.31;4199750;28;20045;-69
2022/10/28 03:12:27;;;;;;;0.85;0.40;;;;;;;23.18;46.77;102642.38;4199925;28;20040;-68
2022/10/28 03:14:28;;;;;;;0.57;0.45;;;;;;;23.19;46.65;102649.69;4199938;28;20090;-69
2022/10/28 03:16:29;;;;;;;0.70;0.50;;;;;;;23.18;46.83;102645.16;4199125;28;20040;-69
2022/10/28 03:18:31;;;;;;;1.08;0.65;;;;;;;23.07;46.93;102627.41;4199199;28;20025;-69
2022/10/28 03:20:32;;;;;;;0.75;0.47;;;;;;;22.81;46.80;102592.63;4199532;28;20070;-70
2022/10/28 03:22:36;;;;;;;1.48;0.57;;;;;;;23.17;46.81;102660.25;4199800;28;20037;-70
2022/10/28 03:24:40;;;;;;;1.35;0.50;;;;;;;22.97;46.68;102623.63;4199791;28;20491;-69
2022/10/28 03:26:42;;;;;;;0.60;0.40;;;;;;;23.19;46.77;102657.22;4199384;28;20078;-70
2022/10/28 03:28:46;;;;;;;0.57;0.50;;;;;;;22.63;47.01;102572.50;4199556;28;20092;-69
2022/10/28 03:30:50;;;;;;;0.38;0.38;;;;;;;23.17;46.59;102656.59;4198362;28;20037;-69
2022/10/28 03:32:51;;;;;;;0.80;0.40;;;;;;;23.16;46.74;102664.13;4199518;28;20037;-70
2022/10/28 03:34:52;;;;;;;0.90;0.55;;;;;;;23.16;46.77;102655.75;4199430;28;20082;-70
2022/10/28 03:36:54;;;;;;;1.13;0.43;;;;;;;21.81;46.69;102510.53;4199457;28;20041;-70
2022/10/28 03:38:55;;;;;;;0.40;0.40;;;;;;;23.15;46.63;102665.25;4199480;28;20085;-69
2022/10/28 03:40:56;;;;;;;0.70;0.40;;;;;;;23.15;46.76;102664.41;4198639;28;20426;-69
2022/10/28 03:42:57;;;;;;;0.60;0.47;;;;;;;23.15;46.68;102676.41;4199710;28;20037;-71
2022/10/28 03:44:59;;;;;;;0.73;0.73;;;;;;;23.15;46.90;102679.22;4199061;28;20041;-70
2022/10/28 03:47:00;;;;;;;1.55;0.40;;;;;;;23.15;46.59;102682.00;4199315;28;20044;-70
2022/10/28 03:49:02;;;;;;;0.80;0.40;;;;;;;23.05;46.86;102674.31;4199300;28;20036;-69
2022/10/28 03:51:03;;;;;;;0.28;0.20;;;;;;;22.99;46.67;102663.28;4199280;28;20045;-69
2022/10/28 03:53:04;;;;;;;1.50;0.50;;;;;;;23.15;46.90;102684.78;4199348;28;20082;-70
2022/10/28 03:55:06;;;;;;;0.40;0.40;;;;;;;23.15;46.58;102693.16;4198873;28;20037;-69
2022/10/28 03:57:09;;;;;;;0.68;0.40;;;;;;;23.13;46.69;102692.56;4199184;28;20102;-69
2022/10/28 03:59:13;;;;;;;0.35;0.35;;;;;;;23.14;46.63;102697.06;4198763;28;20090;-69
2022/10/28 04:01:14;;;;;;;0.73;0.60;;;;;;;23.03;46.64;102678.44;4198960;28;20101;-70
2022/10/28 04:03:20;;;;;;;0.43;0.40;;;;;;;23.05;46.88;102691.06;4199382;28;20110;-70
2022/10/28 04:05:21;;;;;;;1.58;0.70;;;;;;;22.73;46.64;102640.50;4197174;28;20036;-70
2022/10/28 04:07:22;;;;;;;1.30;0.50;;;;;;;23.10;46.57;102701.47;4199005;28;20032;-69
2022/10/28 04:09:24;;;;;;;0.63;0.38;;;;;;;22.65;46.79;102629.75;4199053;28;20102;-69
2022/10/28 04:11:25;;;;;;;0.63;0.40;;;;;;;23.07;46.84;102701.97;4198906;28;20045;-70
2022/10/28 04:13:26;;;;;;;0.45;0.40;;;;;;;23.00;46.64;102678.94;4198892;28;20098;-70
2022/10/28 04:15:28;;;;;;;0.90;0.40;;;;;;;23.09;46.76;102705.34;4198415;28;20545;-69
2022/10/28 04:17:29;;;;;;;1.30;0.45;;;;;;;23.10;46.90;102704.25;4198872;28;20086;-70
2022/10/28 04:19:31;;;;;;;0.88;0.50;;;;;;;22.92;46.79;102676.59;4198335;28;20475;-70
2022/10/28 04:21:32;;;;;;;0.50;0.50;;;;;;;23.03;46.76;102700.78;4197927;28;20460;-71
2022/10/28 04:23:34;;;;;;;0.52;0.40;;;;;;;22.93;46.79;102687.50;4198390;28;20041;-69
2022/10/28 04:25:35;;;;;;;1.85;0.50;;;;;;;23.08;46.69;102712.88;4198096;28;20493;-70
2022/10/28 04:27:36;;;;;;;1.55;0.50;;;;;;;23.01;46.50;102703.84;4197325;28;20106;-70
2022/10/28 04:29:37;;;;;;;0.52;0.43;;;;;;;23.03;46.33;102718.38;4198079;28;20041;-70
2022/10/28 04:31:39;;;;;;;0.60;0.50;;;;;;;23.05;46.48;102718.13;4198548;28;20041;-70
2022/10/28 04:33:40;;;;;;;0.75;0.50;;;;;;;22.89;46.45;102693.78;4198764;28;20032;-70
2022/10/28 04:35:42;;;;;;;0.98;0.60;;;;;;;23.08;46.71;102724.03;4198171;28;20040;-70
2022/10/28 04:37:43;;;;;;;1.42;0.50;;;;;;;23.07;46.58;102729.88;4198333;28;20040;-69
2022/10/28 04:39:44;;;;;;;0.57;0.30;;;;;;;23.06;46.63;102723.47;4198544;28;20033;-70
2022/10/28 04:41:45;;;;;;;0.50;0.47;;;;;;;23.06;46.70;102725.41;4197021;28;20032;-67
2022/10/28 04:43:47;;;;;;;0.57;0.40;;;;;;;23.04;46.69;102727.59;4198054;28;20036;-67
2022/10/28 04:45:48;;;;;;;0.95;0.52;;;;;;;23.02;46.62;102730.66;4197681;28;20097;-69
2022/10/28 04:47:55;;;;;;;0.80;0.45;;;;;;;22.95;46.83;102726.31;4198212;28;20036;-70
2022/10/28 04:49:59;;;;;;;0.90;0.52;;;;;;;23.05;46.72;102737.69;4198329;28;20383;-68
2022/10/28 04:52:00;;;;;;;0.60;0.40;;;;;;;23.04;46.69;102741.56;4198140;28;20044;-70
2022/10/28 04:54:01;;;;;;;0.63;0.50;;;;;;;23.04;46.39;102741.56;4198477;28;20082;-69
2022/10/28 04:56:08;;;;;;;2.38;0.40;;;;;;;23.02;46.75;102750.19;4197764;28;20074;-68
2022/10/28 04:58:10;;;;;;;0.60;0.47;;;;;;;23.03;46.52;102746.28;4198221;28;20040;-69
2022/10/28 05:00:12;;;;;;;0.90;0.40;;;;;;;23.04;46.54;102752.72;4197781;28;20040;-69
2022/10/28 05:02:13;;;;;;;0.60;0.40;;;;;;;23.00;46.46;102745.94;4197752;28;20048;-69
2022/10/28 05:04:14;;;;;;;0.70;0.50;;;;;;;23.00;46.31;102748.72;4197976;28;20094;-69
2022/10/28 05:06:15;;;;;;;1.20;0.50;;;;;;;23.01;46.51;102747.66;4197295;28;20036;-69
2022/10/28 05:08:19;;;;;;;0.68;0.40;;;;;;;23.01;46.58;102747.66;4197904;28;20094;-69
2022/10/28 05:10:21;;;;;;;0.60;0.40;;;;;;;23.02;46.59;102757.72;4197940;28;20040;-69
2022/10/28 05:12:22;;;;;;;2.05;0.57;;;;;;;23.01;46.52;102756.03;4197565;28;20045;-69
2022/10/28 05:14:23;;;;;;;0.47;0.47;;;;;;;22.90;46.75;102734.59;4197750;28;20636;-69
2022/10/28 05:16:27;;;;;;;0.43;0.43;;;;;;;23.00;46.58;102758.00;4197429;28;20105;-68
2022/10/28 05:18:28;;;;;;;0.68;0.30;;;;;;;23.00;46.54;102748.72;4198113;28;20044;-69
2022/10/28 05:20:30;;;;;;;0.40;0.40;;;;;;;23.00;46.55;102763.56;4197990;28;20036;-69
2022/10/28 05:22:31;;;;;;;0.50;0.50;;;;;;;22.97;46.51;102752.06;4198049;28;20028;-70
2022/10/28 05:24:32;;;;;;;0.60;0.60;;;;;;;22.99;46.32;102750.69;4198015;28;20070;-69
2022/10/28 05:26:33;;;;;;;0.60;0.40;;;;;;;22.79;46.53;102728.81;4197409;28;20037;-70
2022/10/28 05:28:35;;;;;;;1.92;0.60;;;;;;;22.95;46.40;102752.28;4197448;28;20075;-69
2022/10/28 05:30:39;;;;;;;0.82;0.40;;;;;;;22.97;46.38;102760.44;4197663;28;20053;-69
2022/10/28 05:32:43;;;;;;;0.33;0.33;;;;;;;22.97;46.37;102757.63;4197073;28;20050;-69
2022/10/28 05:34:44;;;;;;;0.47;0.47;;;;;;;22.96;46.46;102758.75;4197441;28;20434;-69
2022/10/28 05:36:46;;;;;;;0.30;0.30;;;;;;;22.86;46.18;102738.94;4197445;28;20082;-69
2022/10/28 05:38:53;;;;;;;0.47;0.40;;;;;;;22.94;46.53;102755.34;4197935;28;20102;-69
2022/10/28 05:40:54;;;;;;;0.28;0.28;;;;;;;22.97;46.34;102755.69;4197648;28;20040;-69
2022/10/28 05:42:55;;;;;;;0.40;0.40;;;;;;;22.95;46.41;102757.88;4197719;28;20533;-69
2022/10/28 05:44:59;;;;;;;0.55;0.35;;;;;;;22.95;46.42;102757.88;4196071;28;20036;-69
2022/10/28 05:47:00;;;;;;;0.30;0.30;;;;;;;22.94;46.33;102758.97;4197694;28;20032;-69
2022/10/28 05:49:03;;;;;;;0.55;0.40;;;;;;;22.74;46.55;102731.50;4197376;28;20036;-68
2022/10/28 05:51:04;;;;;;;1.17;0.50;;;;;;;22.94;46.33;102756.19;4197501;28;20040;-68
2022/10/28 05:53:05;;;;;;;0.45;0.45;;;;;;;22.94;46.36;102764.56;4197622;28;20041;-69
2022/10/28 05:55:07;;;;;;;0.65;0.40;;;;;;;22.94;46.53;102763.72;4197204;28;20430;-69
2022/10/28 05:57:08;;;;;;;0.90;0.40;;;;;;;22.95;46.27;102765.41;4197498;28;20114;-69
2022/10/28 05:59:18;;;;;;;0.50;0.35;;;;;;;22.90;46.38;102757.78;4197686;28;20066;-69
2022/10/28 06:01:20;;;;;;;0.52;0.40;;;;;;;22.94;46.20;102767.34;4197311;28;20041;-69
2022/10/28 06:03:21;;;;;;;0.65;0.40;;;;;;;22.94;46.22;102775.72;4197415;28;20052;-69
2022/10/28 06:05:28;;;;;;;0.52;0.30;;;;;;;22.94;46.13;102780.47;4197109;28;20082;-68
2022/10/28 06:07:30;;;;;;;1.60;0.60;;;;;;;22.90;46.46;102773.69;4197588;28;20024;-69
2022/10/28 06:09:31;;;;;;;0.80;0.60;;;;;;;22.93;46.19;102778.78;4196950;28;20037;-70
2022/10/28 06:11:34;;;;;;;0.57;0.50;;;;;;;22.90;46.45;102768.94;4197368;28;20083;-69
2022/10/28 06:13:35;;;;;;;0.40;0.40;;;;;;;22.91;46.34;102770.66;4197464;28;20040;-69
2022/10/28 06:15:36;;;;;;;0.40;0.40;;;;;;;22.90;46.16;102768.94;4197066;28;20041;-69
2022/10/28 06:17:38;;;;;;;0.40;0.40;;;;;;;22.89;46.39;102775.63;4197400;28;20036;-69
2022/10/28 06:19:39;;;;;;;0.80;0.55;;;;;;;22.91;46.29;102780.94;4197430;28;20037;-70
2022/10/28 06:21:43;;;;;;;0.40;0.40;;;;;;;22.87;46.50;102776.97;4197336;28;20037;-69
2022/10/28 06:23:57;;;;;;;0.43;0.32;;;;;;;22.83;46.44;102780.25;4197597;28;20459;-69
2022/10/28 06:26:06;;;;;;;0.80;0.40;;;;;;;22.89;46.31;102786.78;4196777;28;20033;-70
2022/10/28 06:28:08;;;;;;;0.40;0.40;;;;;;;22.88;46.33;102790.66;4197444;28;20540;-69
2022/10/28 06:30:10;;;;;;;0.60;0.60;;;;;;;22.88;46.18;102787.03;4197273;28;20036;-69
2022/10/28 06:32:14;;;;;;;0.82;0.50;;;;;;;22.87;46.33;102794.56;4197120;28;20438;-69
2022/10/28 06:34:16;;;;;;;1.27;0.53;;;;;;;22.87;46.17;102797.34;4195576;28;20098;-69
2022/10/28 06:36:17;;;;;;;0.45;0.40;;;;;;;22.87;46.08;102791.75;4196972;28;20028;-69
2022/10/28 06:38:18;;;;;;;0.50;0.50;;;;;;;22.88;46.42;102792.59;4197182;28;20040;-69
2022/10/28 06:40:19;;;;;;;0.40;0.40;;;;;;;22.86;46.29;102783.63;4197149;28;20044;-69
2022/10/28 06:42:21;;;;;;;0.60;0.50;;;;;;;22.84;46.10;102792.25;4197312;28;20021;-68
2022/10/28 06:44:22;;;;;;;0.60;0.30;;;;;;;22.86;46.25;102800.38;4199005;28;20041;-69
2022/10/28 06:46:23;;;;;;;0.50;0.47;;;;;;;22.71;45.99;102778.59;4199959;28;20098;-69
2022/10/28 06:48:25;;;;;;;0.40;0.40;;;;;;;22.83;46.36;102802.56;4194405;28;20044;-69
2022/10/28 06:50:27;;;;;;;0.88;0.50;;;;;;;22.84;46.30;102803.41;4200128;28;20094;-69
2022/10/28 06:52:28;;;;;;;0.47;0.47;;;;;;;22.83;46.14;102810.94;4199784;28;20094;-69
2022/10/28 06:54:30;;;;;;;0.30;0.30;;;;;;;22.83;46.24;102807.31;4199740;28;20446;-69
2022/10/28 06:56:31;;;;;;;0.40;0.32;;;;;;;22.82;46.19;102814.00;4199756;28;20086;-69
2022/10/28 06:58:32;;;;;;;0.68;0.40;;;;;;;22.82;46.41;102812.06;4199947;28;20090;-69
2022/10/28 07:00:33;;;;;;;0.35;0.35;;;;;;;22.82;46.20;102806.47;4199778;28;20094;-69
2022/10/28 07:02:42;;;;;;;0.50;0.50;;;;;;;22.72;46.03;102788.66;4199914;28;20102;-69
2022/10/28 07:04:43;;;;;;;0.40;0.40;;;;;;;22.83;46.02;102813.75;4200118;28;20071;-69
2022/10/28 07:06:47;;;;;;;0.55;0.40;;;;;;;22.83;46.14;102808.16;4199577;28;20097;-69
2022/10/28 07:08:54;;;;;;;0.88;0.57;;;;;;;22.81;45.99;102810.34;4199833;28;20106;-69
2022/10/28 07:10:58;;;;;;;1.27;0.40;;;;;;;22.81;46.35;102821.50;4199835;28;20044;-69
2022/10/28 07:12:59;;;;;;;0.40;0.40;;;;;;;22.80;46.07;102822.59;4199808;28;20053;-69
2022/10/28 07:15:01;;;;;;;0.70;0.50;;;;;;;22.79;45.91;102818.13;4199620;28;20028;-69
2022/10/28 07:17:02;;;;;;;0.65;0.30;;;;;;;22.73;46.21;102812.69;4199776;28;20106;-68
2022/10/28 07:19:03;;;;;;;0.40;0.40;;;;;;;22.80;45.93;102818.97;4199783;28;20040;-69
2022/10/28 07:21:05;;;;;;;0.63;0.50;;;;;;;22.80;46.24;102832.91;4199786;28;20078;-68
2022/10/28 07:23:13;;;;;;;0.57;0.40;;;;;;;22.40;45.98;102769.59;4199843;28;20025;-69
2022/10/28 07:25:14;;;;;;;0.40;0.40;;;;;;;22.68;46.24;102819.03;4199337;28;20044;-69
2022/10/28 07:27:15;;;;;;;0.73;0.43;;;;;;;22.77;46.10;102831.50;4199697;28;20067;-69
2022/10/28 07:29:17;;;;;;;0.55;0.35;;;;;;;22.77;45.84;102831.50;4199499;28;20114;-69
2022/10/28 07:31:21;;;;;;;0.63;0.40;;;;;;;22.76;45.87;102840.94;4199226;28;20040;-69
2022/10/28 07:33:28;;;;;;;0.60;0.47;;;;;;;22.76;45.86;102840.94;4199246;28;20040;-69
2022/10/28 07:35:30;;;;;;;0.50;0.50;;;;;;;22.76;46.03;102842.88;4198720;28;20086;-69
2022/10/28 07:37:31;;;;;;;0.40;0.40;;;;;;;22.77;46.28;102847.34;4199398;28;20090;-69
2022/10/28 07:39:32;;;;;;;0.47;0.32;;;;;;;22.76;46.15;102854.03;4199635;28;20032;-69
2022/10/28 07:41:39;;;;;;;0.50;0.40;;;;;;;22.75;46.09;102844.81;4199317;28;20106;-69
2022/10/28 07:43:40;;;;;;;0.30;0.30;;;;;;;22.75;46.04;102844.81;4199426;28;20036;-69
2022/10/28 07:45:41;;;;;;;0.30;0.30;;;;;;;22.74;45.85;102837.56;4199084;28;20094;-68
2022/10/28 07:47:43;;;;;;;0.45;0.30;;;;;;;22.74;45.97;102851.50;4199345;28;20040;-69
2022/10/28 07:49:44;;;;;;;0.35;0.30;;;;;;;22.74;45.87;102851.50;4199326;28;20085;-69
2022/10/28 07:51:48;;;;;;;0.30;0.30;;;;;;;22.73;45.91;102857.34;4199149;28;20040;-69
2022/10/28 07:53:49;;;;;;;0.40;0.40;;;;;;;22.73;45.96;102847.03;4199254;28;20480;-69
2022/10/28 07:55:58;;;;;;;0.40;0.40;;;;;;;22.73;45.67;102851.78;4197869;28;20045;-69
2022/10/28 07:57:59;;;;;;;0.40;0.40;;;;;;;22.73;45.79;102858.19;4199121;28;20033;-69
2022/10/28 08:00:01;;;;;;;1.63;0.38;;;;;;;22.73;45.91;102847.03;4199201;28;20028;-68
2022/10/28 08:02:04;;;;;;;0.40;0.25;;;;;;;22.73;45.66;102838.66;4198883;28;20114;-68
2022/10/28 08:04:05;;;;;;;0.55;0.30;;;;;;;22.70;45.86;102841.94;4199192;28;20040;-69
2022/10/28 08:06:16;;;;;;;0.35;0.30;;;;;;;22.70;46.05;102838.31;4198502;28;20426;-69
2022/10/28 08:08:17;;;;;;;0.40;0.40;;;;;;;22.60;45.82;102827.78;4198987;28;20041;-69
2022/10/28 08:10:21;;;;;;;1.40;0.50;;;;;;;22.69;45.83;102839.41;4198962;28;20106;-69
2022/10/28 08:12:23;;;;;;;0.57;0.32;;;;;;;22.69;45.90;102845.81;4198969;28;20036;-68
2022/10/28 08:14:24;;;;;;;0.45;0.45;;;;;;;22.68;45.76;102849.72;4198270;28;20044;-69
2022/10/28 08:16:29;;;;;;;0.90;0.57;;;;;;;22.68;45.92;102855.31;4198554;28;20025;-69
2022/10/28 08:18:30;;;;;;;0.52;0.50;;;;;;;22.69;45.99;102848.63;4198858;28;20054;-68
2022/10/28 08:20:31;;;;;;;0.82;0.32;;;;;;;21.99;45.76;102735.25;4198690;28;20102;-68
2022/10/28 08:22:33;;;;;;;0.30;0.30;;;;;;;22.68;45.78;102854.44;4198411;28;20086;-68
2022/10/28 08:24:35;;;;;;;0.52;0.43;;;;;;;22.67;46.08;102859.16;4198744;28;20058;-68
2022/10/28 08:26:36;;;;;;;0.50;0.50;;;;;;;22.67;45.71;102859.16;4198184;28;20090;-68
2022/10/28 08:28:37;;;;;;;0.40;0.28;;;;;;;22.67;45.94;102856.38;4198571;28;20044;-69
2022/10/28 08:30:39;;;;;;;0.35;0.35;;;;;;;22.67;45.75;102859.16;4198602;28;20033;-68
2022/10/28 08:32:40;;;;;;;1.27;0.32;;;;;;;22.66;45.96;102856.63;4198217;28;20045;-68
2022/10/28 08:34:41;;;;;;;0.82;0.40;;;;;;;22.67;45.91;102869.47;4198518;28;20036;-68
2022/10/28 08:36:43;;;;;;;0.52;0.40;;;;;;;22.66;45.85;102867.78;4198275;28;20028;-68
2022/10/28 08:38:45;;;;;;;0.28;0.25;;;;;;;22.65;46.03;102871.69;4198078;28;20095;-68
2022/10/28 08:41:34;;;;;;;0.63;0.40;;;;;;;22.61;45.73;102874.13;4198439;28;20037;-68
2022/10/28 08:43:50;;;;;;;0.63;0.50;;;;;;;22.64;45.64;102878.38;4193528;28;20442;-68
2022/10/28 08:46:19;;;;;;;0.40;0.40;;;;;;;22.64;45.63;102881.16;4198042;28;20037;-68
2022/10/28 08:48:32;;;;;;;0.40;0.40;;;;;;;22.64;45.65;102881.16;4198551;28;20098;-68
2022/10/28 08:50:49;;;;;;;0.60;0.50;;;;;;;22.60;45.59;102875.22;4198227;28;20041;-68
2022/10/28 08:53:12;;;;;;;0.80;0.65;;;;;;;22.28;46.08;102828.22;4198103;28;20044;-68
2022/10/28 08:55:30;;;;;;;0.60;0.50;;;;;;;22.53;45.91;102875.34;4197901;28;20078;-69
2022/10/28 08:57:39;;;;;;;0.95;0.70;;;;;;;22.62;45.71;102884.16;4197999;28;20044;-68
2022/10/28 08:59:41;;;;;;;0.40;0.40;;;;;;;22.62;45.78;102889.75;4198169;28;20036;-68
2022/10/28 09:01:57;;;;;;;0.50;0.50;;;;;;;22.58;45.85;102888.53;4198180;28;20048;-69
2022/10/28 09:04:04;;;;;;;0.52;0.52;;;;;;;22.59;45.77;102890.25;4197918;28;20037;-69
2022/10/28 09:06:09;;;;;;;0.60;0.40;;;;;;;22.48;45.62;102871.59;4197520;28;20037;-69
2022/10/28 09:08:24;;;;;;;0.40;0.40;;;;;;;22.58;45.61;102894.13;4197956;28;20036;-68
2022/10/28 09:10:59;;;;;;;0.60;0.50;;;;;;;22.39;45.74;102868.31;4198074;28;20081;-68
2022/10/28 09:13:03;;;;;;;0.30;0.30;;;;;;;22.59;45.69;102904.22;4197901;28;20037;-68
2022/10/28 09:15:07;;;;;;;1.15;0.40;;;;;;;22.57;45.61;102909.19;4197079;28;20070;-68
2022/10/28 09:17:14;;;;;;;0.77;0.50;;;;;;;22.57;45.62;102910.03;4197763;28;20434;-68
2022/10/28 09:19:38;;;;;;;0.70;0.38;;;;;;;22.55;45.49;102911.38;4197920;28;20029;-69
2022/10/28 09:22:08;;;;;;;0.30;0.30;;;;;;;22.55;45.84;102922.53;4198133;28;20033;-68
2022/10/28 09:24:52;;;;;;;0.70;0.40;;;;;;;22.54;45.77;102931.97;4197877;28;20483;-68
2022/10/28 09:27:19;;;;;;;0.40;0.40;;;;;;;22.55;45.43;102939.28;4196975;28;20044;-68
2022/10/28 09:29:20;;;;;;;0.68;0.50;;;;;;;22.58;45.26;102939.63;4192129;28;20044;-68
2022/10/28 09:31:34;;;;;;;0.30;0.30;;;;;;;22.48;45.69;102921.81;4197715;28;20053;-67
2022/10/28 09:34:16;;;;;;;0.60;0.50;;;;;;;22.51;45.49;102943.66;4197435;28;20172;-68
2022/10/28 09:36:33;;;;;;;0.52;0.47;;;;;;;22.55;45.56;102940.13;4197464;28;20426;-68
2022/10/28 09:38:39;;;;;;;0.40;0.40;;;;;;;22.54;45.61;102949.59;4197857;28;20033;-68
2022/10/28 09:40:46;;;;;;;0.45;0.45;;;;;;;22.54;45.49;102946.81;4197678;28;20656;-68
2022/10/28 09:43:24;;;;;;;0.30;0.30;;;;;;;22.52;45.43;102950.91;4197313;28;20048;-68
2022/10/28 09:45:30;;;;;;;0.32;0.32;;;;;;;22.53;45.63;102949.81;4197226;28;20044;-68
2022/10/28 09:47:45;;;;;;;0.45;0.45;;;;;;;22.51;45.36;102943.66;4197663;28;20041;-68
2022/10/28 09:49:50;;;;;;;0.85;0.45;;;;;;;22.53;45.52;102955.41;4197188;28;20361;-68